createdAt,value
2019-03-13T00:01:01.777Z,51.30
2019-03-13T00:03:31.166Z,51.10
2019-03-13T00:06:00.658Z,50.90
2019-03-13T00:08:28.385Z,50.80
2019-03-13T00:10:56.039Z,50.80
2019-03-13T00:13:25.650Z,51.70
2019-03-13T00:15:53.428Z,52.00
2019-03-13T00:18:21.113Z,51.30
2019-03-13T00:20:48.881Z,51.30
2019-03-13T00:23:16.556Z,52.30
2019-03-13T00:25:44.369Z,52.20
2019-03-13T00:28:12.103Z,52.30
2019-03-13T00:30:39.936Z,52.50
2019-03-13T00:33:07.600Z,52.70
2019-03-13T00:35:35.651Z,52.80
2019-03-13T00:38:05.193Z,53.20
2019-03-13T00:40:32.978Z,53.60
2019-03-13T00:43:01.751Z,53.90
2019-03-13T00:45:29.428Z,54.00
2019-03-13T00:47:57.100Z,53.70
2019-03-13T00:50:26.822Z,54.20
2019-03-13T00:52:54.511Z,54.40
2019-03-13T00:55:22.162Z,54.60
2019-03-13T00:57:50.945Z,53.90
2019-03-13T01:00:36.430Z,54.60
2019-03-13T01:03:05.598Z,55.40
2019-03-13T01:05:39.078Z,56.80
2019-03-13T01:08:06.925Z,57.60
2019-03-13T01:10:34.712Z,57.50
2019-03-13T01:13:02.440Z,57.20
2019-03-13T01:15:30.128Z,57.00
2019-03-13T01:17:57.777Z,56.30
2019-03-13T01:20:25.543Z,56.20
2019-03-13T01:22:53.293Z,55.70
2019-03-13T01:25:20.957Z,55.20
2019-03-13T01:27:48.684Z,54.20
2019-03-13T01:30:16.537Z,53.60
2019-03-13T01:32:52.158Z,53.80
2019-03-13T01:35:37.413Z,53.80
2019-03-13T01:38:06.899Z,53.40
2019-03-13T01:40:34.773Z,53.40
2019-03-13T01:43:02.429Z,53.30
2019-03-13T01:45:31.210Z,53.50
2019-03-13T01:47:58.892Z,53.00
2019-03-13T01:50:26.621Z,53.50
2019-03-13T01:52:54.262Z,53.20
2019-03-13T01:55:21.953Z,52.60
2019-03-13T01:57:51.405Z,52.70
2019-03-13T02:00:18.999Z,52.50
2019-03-13T02:02:46.761Z,52.00
2019-03-13T02:05:14.696Z,53.50
2019-03-13T02:07:42.331Z,53.00
2019-03-13T02:10:10.190Z,52.90
2019-03-13T02:12:37.789Z,52.70
2019-03-13T02:15:06.373Z,52.60
2019-03-13T02:17:34.118Z,52.50
2019-03-13T02:20:01.822Z,53.00
2019-03-13T02:22:30.667Z,53.20
2019-03-13T02:24:58.364Z,54.00
2019-03-13T02:27:26.076Z,54.70
2019-03-13T02:29:53.746Z,54.90
2019-03-13T02:32:21.409Z,55.00
2019-03-13T02:34:49.106Z,55.30
2019-03-13T02:37:16.766Z,55.10
2019-03-13T02:39:44.521Z,55.00
2019-03-13T02:42:12.305Z,55.70
2019-03-13T02:44:39.959Z,55.70
2019-03-13T02:47:07.649Z,55.60
2019-03-13T02:49:35.318Z,56.10
2019-03-13T02:52:04.106Z,55.50
2019-03-13T02:54:31.888Z,56.40
2019-03-13T02:56:59.578Z,55.90
2019-03-13T02:59:27.218Z,55.90
2019-03-13T03:02:06.330Z,56.00
2019-03-13T03:04:34.101Z,55.80
2019-03-13T03:07:01.820Z,55.90
2019-03-13T03:09:29.738Z,56.60
2019-03-13T03:11:57.393Z,57.20
2019-03-13T03:14:25.097Z,57.80
2019-03-13T03:16:52.848Z,57.90
2019-03-13T03:19:20.557Z,58.00
2019-03-13T03:21:48.243Z,58.80
2019-03-13T03:24:16.034Z,59.40
2019-03-13T03:26:43.733Z,59.30
2019-03-13T03:29:13.311Z,59.10
2019-03-13T03:31:41.050Z,59.00
2019-03-13T03:34:08.903Z,58.50
2019-03-13T03:36:36.681Z,58.00
2019-03-13T03:39:05.597Z,57.90
2019-03-13T03:41:35.362Z,57.50
2019-03-13T03:44:03.054Z,57.10
2019-03-13T03:46:30.709Z,56.50
2019-03-13T03:48:58.427Z,56.50
2019-03-13T03:51:26.220Z,57.00
2019-03-13T03:53:53.963Z,57.00
2019-03-13T03:56:21.610Z,57.00
2019-03-13T03:58:49.251Z,56.80
2019-03-13T04:01:16.910Z,56.00
2019-03-13T04:03:44.613Z,56.20
2019-03-13T04:06:12.462Z,55.90
2019-03-13T04:08:40.570Z,56.60
2019-03-13T04:11:08.322Z,55.80
2019-03-13T04:13:35.955Z,56.10
2019-03-13T04:16:03.615Z,56.10
2019-03-13T04:18:31.322Z,55.80
2019-03-13T04:20:58.966Z,55.80
2019-03-13T04:23:26.707Z,55.40
2019-03-13T04:25:54.348Z,55.50
2019-03-13T04:28:22.077Z,55.60
2019-03-13T04:30:49.879Z,55.50
2019-03-13T04:33:17.619Z,55.60
2019-03-13T04:35:45.321Z,55.70
2019-03-13T04:38:13.043Z,55.70
2019-03-13T04:40:40.877Z,55.80
2019-03-13T04:43:08.614Z,55.90
2019-03-13T04:45:36.348Z,55.60
2019-03-13T04:48:04.081Z,55.70
2019-03-13T04:50:31.754Z,55.70
2019-03-13T04:52:59.402Z,55.40
2019-03-13T04:55:27.103Z,55.60
2019-03-13T04:57:54.850Z,55.60
2019-03-13T05:00:22.516Z,55.60
2019-03-13T05:02:50.220Z,54.90
2019-03-13T05:05:47.126Z,54.70
2019-03-13T05:08:45.195Z,53.80
2019-03-13T05:11:05.943Z,53.50
2019-03-13T05:13:34.774Z,52.70
2019-03-13T05:16:02.437Z,52.70
2019-03-13T05:18:31.174Z,52.60
2019-03-13T05:20:58.890Z,52.40
2019-03-13T05:23:26.598Z,52.10
2019-03-13T05:25:54.326Z,52.20
2019-03-13T05:28:21.998Z,51.60
2019-03-13T05:30:52.821Z,51.10
2019-03-13T05:33:19.217Z,51.00
2019-03-13T05:35:46.894Z,50.00
2019-03-13T05:38:14.557Z,50.30
2019-03-13T05:40:42.314Z,50.20
2019-03-13T05:43:09.924Z,50.50
2019-03-13T05:45:37.580Z,50.30
2019-03-13T05:48:05.230Z,49.80
2019-03-13T05:50:32.901Z,49.30
2019-03-13T05:53:01.665Z,49.70
2019-03-13T05:55:30.571Z,49.80
2019-03-13T05:57:58.301Z,49.80
2019-03-13T06:00:27.685Z,49.40
2019-03-13T06:02:55.368Z,48.20
2019-03-13T06:05:23.032Z,48.20
2019-03-13T06:07:50.705Z,48.00
2019-03-13T06:10:19.380Z,48.00
2019-03-13T06:12:47.289Z,48.40
2019-03-13T06:15:15.047Z,48.00
2019-03-13T06:17:42.754Z,48.70
2019-03-13T06:20:10.849Z,49.90
2019-03-13T06:22:38.729Z,50.90
2019-03-13T06:25:07.654Z,51.20
2019-03-13T06:27:35.448Z,51.80
2019-03-13T06:30:04.001Z,52.20
2019-03-13T06:32:31.777Z,52.90
2019-03-13T06:34:59.403Z,53.50
2019-03-13T06:37:27.157Z,54.00
2019-03-13T06:39:54.876Z,54.20
2019-03-13T06:42:22.551Z,54.30
2019-03-13T06:44:50.269Z,54.70
2019-03-13T06:47:17.958Z,55.00
2019-03-13T06:49:45.604Z,55.20
2019-03-13T06:52:13.281Z,55.20
2019-03-13T06:54:40.941Z,55.30
2019-03-13T06:57:08.643Z,55.40
2019-03-13T06:59:55.905Z,55.70
2019-03-13T07:02:30.998Z,56.70
2019-03-13T07:05:06.497Z,57.70
2019-03-13T07:07:53.678Z,58.80
2019-03-13T07:10:38.983Z,59.80
2019-03-13T07:13:35.480Z,59.80
2019-03-13T07:16:10.012Z,60.90
2019-03-13T07:18:57.260Z,60.30
2019-03-13T07:21:38.137Z,60.80
2019-03-13T07:24:27.398Z,61.10
2019-03-13T07:27:20.367Z,60.30
2019-03-13T07:30:07.260Z,61.40
2019-03-13T07:33:01.978Z,61.10
2019-03-13T07:35:36.484Z,61.80
2019-03-13T07:38:23.835Z,63.30
2019-03-13T07:41:14.005Z,62.60
2019-03-13T07:43:59.759Z,62.90
2019-03-13T07:46:56.035Z,62.60
2019-03-13T07:49:55.226Z,62.90
2019-03-13T07:52:41.133Z,62.00
2019-03-13T07:55:34.272Z,62.00
2019-03-13T07:58:15.196Z,60.90
2019-03-13T08:00:49.846Z,60.80
2019-03-13T08:03:25.593Z,59.90
2019-03-13T08:06:11.929Z,58.60
2019-03-13T08:08:46.620Z,59.80
2019-03-13T08:11:44.439Z,59.80
2019-03-13T08:14:32.983Z,56.40
2019-03-13T08:17:20.845Z,57.90
2019-03-13T08:20:08.047Z,56.40
2019-03-13T08:22:49.138Z,57.40
2019-03-13T08:25:42.133Z,56.60
2019-03-13T08:28:35.405Z,55.30
2019-03-13T08:31:23.315Z,53.00
2019-03-13T08:34:09.025Z,53.00
2019-03-13T08:36:55.091Z,52.30
2019-03-13T08:40:00.492Z,49.10
2019-03-13T08:42:53.762Z,48.20
2019-03-13T08:45:39.384Z,47.40
2019-03-13T08:48:19.731Z,48.40
2019-03-13T08:51:22.241Z,47.60
2019-03-13T08:53:59.597Z,48.10
2019-03-13T08:56:46.781Z,48.50
2019-03-13T08:59:37.175Z,48.80
2019-03-13T09:02:10.656Z,49.70
2019-03-13T09:04:56.600Z,48.80
2019-03-13T09:07:55.678Z,48.00
2019-03-13T09:10:42.817Z,49.20
2019-03-13T09:13:16.821Z,47.00
2019-03-13T09:16:00.133Z,47.10
2019-03-13T09:18:37.936Z,47.60
2019-03-13T09:21:17.286Z,48.50
2019-03-13T09:24:04.486Z,48.70
2019-03-13T09:26:51.892Z,47.30
2019-03-13T09:29:37.113Z,47.20
2019-03-13T09:32:23.317Z,45.10
2019-03-13T09:34:57.617Z,47.10
2019-03-13T09:37:44.819Z,44.30
2019-03-13T09:40:32.032Z,45.10
2019-03-13T09:43:08.275Z,45.30
2019-03-13T09:45:55.501Z,45.10
2019-03-13T09:49:00.797Z,45.20
2019-03-13T09:51:43.253Z,45.10
2019-03-13T09:54:29.334Z,44.90
2019-03-13T09:57:10.661Z,44.50
2019-03-13T09:59:44.660Z,43.90
2019-03-13T10:02:32.804Z,43.10
2019-03-13T10:05:24.907Z,43.70
2019-03-13T10:08:12.008Z,42.40
2019-03-13T10:11:08.092Z,42.20
2019-03-13T10:13:54.561Z,41.10
2019-03-13T10:16:50.454Z,42.00
2019-03-13T10:19:33.927Z,41.10
2019-03-13T10:22:24.322Z,42.00
2019-03-13T10:25:20.521Z,41.80
2019-03-13T10:28:10.614Z,43.00
2019-03-13T10:30:48.571Z,42.60
2019-03-13T10:33:26.102Z,43.60
2019-03-13T10:36:13.118Z,42.80
2019-03-13T10:38:54.405Z,42.20
2019-03-13T10:41:44.401Z,43.10
2019-03-13T10:44:21.704Z,41.70
2019-03-13T10:47:07.184Z,40.80
2019-03-13T10:50:12.785Z,38.90
2019-03-13T10:53:08.053Z,38.90
2019-03-13T10:55:54.899Z,39.60
2019-03-13T10:58:59.120Z,39.60
2019-03-13T11:01:44.217Z,40.20
2019-03-13T11:04:37.338Z,46.40
2019-03-13T11:07:28.576Z,50.70
2019-03-13T11:10:02.698Z,51.60
2019-03-13T11:12:43.959Z,52.60
2019-03-13T11:15:49.693Z,51.10
2019-03-13T11:18:45.686Z,51.70
2019-03-13T11:21:19.249Z,47.30
2019-03-13T11:24:02.394Z,44.80
2019-03-13T11:26:52.217Z,44.40
2019-03-13T11:29:54.566Z,44.50
2019-03-13T11:32:40.269Z,44.50
2019-03-13T11:35:23.281Z,42.80
2019-03-13T11:38:09.349Z,43.00
2019-03-13T11:40:59.401Z,43.40
2019-03-13T11:43:55.827Z,44.30
2019-03-13T11:46:41.906Z,43.30
2019-03-13T11:49:26.834Z,43.70
2019-03-13T11:52:13.151Z,45.40
2019-03-13T11:54:58.934Z,53.70
2019-03-13T11:57:51.946Z,57.50
2019-03-13T12:00:50.862Z,55.80
2019-03-13T12:03:34.802Z,53.90
2019-03-13T12:06:27.813Z,49.60
2019-03-13T12:09:17.504Z,47.40
2019-03-13T12:11:58.828Z,47.80
2019-03-13T12:14:38.555Z,45.40
2019-03-13T12:17:25.744Z,45.30
2019-03-13T12:20:21.493Z,45.30
2019-03-13T12:23:11.502Z,44.80
2019-03-13T12:25:54.542Z,45.50
2019-03-13T12:28:41.752Z,44.50
2019-03-13T12:31:19.211Z,43.10
2019-03-13T12:34:06.480Z,45.10
2019-03-13T12:36:56.438Z,45.00
2019-03-13T12:39:52.423Z,44.00
2019-03-13T12:42:28.898Z,44.70
2019-03-13T12:45:18.844Z,42.60
2019-03-13T12:48:16.675Z,40.80
2019-03-13T12:50:58.139Z,41.80
2019-03-13T12:53:38.406Z,42.50
2019-03-13T12:56:44.713Z,42.40
2019-03-13T12:59:23.291Z,40.60
2019-03-13T13:02:19.901Z,39.80
2019-03-13T13:05:07.117Z,40.30
2019-03-13T13:08:09.461Z,40.60
2019-03-13T13:11:02.529Z,41.50
2019-03-13T13:14:01.636Z,41.70
2019-03-13T13:17:07.083Z,41.00
2019-03-13T13:19:34.730Z,41.70
2019-03-13T13:22:02.511Z,39.80
2019-03-13T13:24:30.265Z,41.00
2019-03-13T13:26:58.074Z,39.30
2019-03-13T13:29:25.775Z,39.20
2019-03-13T13:31:55.464Z,39.90
2019-03-13T13:34:23.379Z,40.20
2019-03-13T13:36:51.407Z,39.80
2019-03-13T13:39:19.173Z,40.40
2019-03-13T13:41:46.867Z,40.50
2019-03-13T13:44:14.518Z,40.60
2019-03-13T13:46:44.557Z,39.70
2019-03-13T13:49:11.805Z,44.10
2019-03-13T13:51:39.514Z,45.30
2019-03-13T13:54:07.291Z,45.30
2019-03-13T13:56:34.951Z,45.20
2019-03-13T13:59:02.966Z,44.40
2019-03-13T14:01:30.911Z,44.00
2019-03-13T14:03:58.694Z,44.00
2019-03-13T14:06:26.434Z,45.30
2019-03-13T14:08:54.150Z,44.90
2019-03-13T14:11:21.814Z,43.60
2019-03-13T14:13:49.543Z,45.30
2019-03-13T14:16:17.243Z,45.40
2019-03-13T14:18:45.008Z,40.00
2019-03-13T14:21:12.712Z,38.80
2019-03-13T14:23:40.425Z,38.70
2019-03-13T14:26:08.118Z,39.20
2019-03-13T14:28:36.927Z,45.00
2019-03-13T14:31:04.803Z,38.80
2019-03-13T14:33:32.497Z,38.70
2019-03-13T14:36:00.291Z,38.80
2019-03-13T14:38:27.982Z,39.10
2019-03-13T14:40:55.640Z,39.70
2019-03-13T14:43:23.435Z,41.10
2019-03-13T14:45:51.174Z,43.70
2019-03-13T14:48:18.937Z,45.60
2019-03-13T14:50:46.666Z,44.70
2019-03-13T14:53:14.528Z,44.60
2019-03-13T14:55:42.252Z,44.20
2019-03-13T14:58:10.056Z,44.60
2019-03-13T15:00:37.745Z,44.40
2019-03-13T15:03:05.533Z,44.30
2019-03-13T15:05:33.338Z,44.40
2019-03-13T15:08:01.921Z,44.30
2019-03-13T15:10:29.597Z,45.00
2019-03-13T15:12:57.274Z,44.70
2019-03-13T15:15:24.973Z,43.70
2019-03-13T15:17:53.367Z,43.40
2019-03-13T15:20:21.495Z,43.00
2019-03-13T15:22:49.157Z,43.30
2019-03-13T15:25:16.942Z,43.10
2019-03-13T15:27:44.665Z,43.80
2019-03-13T15:30:14.682Z,42.70
2019-03-13T15:32:42.385Z,43.20
2019-03-13T15:35:10.174Z,43.30
2019-03-13T15:37:37.827Z,42.90
2019-03-13T15:40:06.939Z,43.30
2019-03-13T15:42:34.741Z,43.00
2019-03-13T15:45:03.651Z,42.40
2019-03-13T15:47:32.685Z,42.10
2019-03-13T15:50:00.458Z,42.20
2019-03-13T15:52:28.172Z,42.70
2019-03-13T15:54:55.942Z,41.70
2019-03-13T15:57:23.618Z,42.00
2019-03-13T15:59:51.304Z,42.30
2019-03-13T16:02:19.044Z,42.80
2019-03-13T16:04:46.682Z,42.20
2019-03-13T16:07:14.332Z,42.20
2019-03-13T16:09:42.034Z,42.70
2019-03-13T16:12:09.716Z,42.80
2019-03-13T16:14:37.444Z,42.40
2019-03-13T16:17:05.093Z,42.90
2019-03-13T16:19:32.841Z,42.80
2019-03-13T16:22:01.228Z,42.90
2019-03-13T16:24:29.009Z,43.40
2019-03-13T16:26:56.673Z,43.50
2019-03-13T16:29:24.369Z,45.60
2019-03-13T16:31:52.113Z,45.60
2019-03-13T16:34:19.805Z,45.60
2019-03-13T16:36:47.481Z,45.60
2019-03-13T16:39:15.366Z,45.60
2019-03-13T16:41:43.249Z,44.70
2019-03-13T16:44:11.066Z,45.60
2019-03-13T16:46:40.519Z,44.70
2019-03-13T16:49:08.306Z,45.60
2019-03-13T16:51:36.009Z,46.60
2019-03-13T16:54:03.850Z,46.60
2019-03-13T16:56:31.622Z,46.60
2019-03-13T16:58:59.330Z,46.70
2019-03-13T17:01:26.985Z,47.40
2019-03-13T17:03:54.691Z,47.30
2019-03-13T17:06:22.350Z,46.40
2019-03-13T17:08:50.024Z,47.20
2019-03-13T17:11:17.692Z,44.80
2019-03-13T17:13:45.479Z,45.60
2019-03-13T17:16:13.192Z,46.50
2019-03-13T17:18:41.010Z,46.30
2019-03-13T17:21:08.878Z,47.20
2019-03-13T17:23:36.653Z,47.80
2019-03-13T17:26:04.346Z,49.20
2019-03-13T17:28:33.156Z,48.30
2019-03-13T17:31:01.299Z,49.50
2019-03-13T17:33:30.119Z,50.10
2019-03-13T17:35:57.924Z,49.80
2019-03-13T17:38:26.710Z,50.60
2019-03-13T17:40:54.450Z,51.40
2019-03-13T17:43:22.233Z,51.80
2019-03-13T17:45:49.904Z,52.90
2019-03-13T17:48:17.565Z,54.40
2019-03-13T17:50:45.392Z,56.90
2019-03-13T17:53:13.230Z,56.90
2019-03-13T17:55:41.057Z,59.40
2019-03-13T17:58:08.709Z,60.70
2019-03-13T18:00:45.385Z,60.30
2019-03-13T18:03:13.226Z,61.30
2019-03-13T18:05:41.782Z,60.90
2019-03-13T18:08:09.579Z,61.20
2019-03-13T18:10:37.413Z,60.90
2019-03-13T18:13:05.053Z,61.10
2019-03-13T18:15:32.793Z,61.60
2019-03-13T18:18:00.432Z,62.20
2019-03-13T18:20:28.112Z,61.60
2019-03-13T18:22:55.799Z,62.60
2019-03-13T18:25:24.625Z,61.90
2019-03-13T18:27:52.375Z,62.50
2019-03-13T18:30:21.049Z,64.20
2019-03-13T18:32:49.349Z,65.10
2019-03-13T18:35:17.391Z,63.40
2019-03-13T18:37:45.118Z,62.60
2019-03-13T18:40:12.933Z,62.10
2019-03-13T18:42:40.679Z,62.00
2019-03-13T18:45:12.321Z,61.10
2019-03-13T18:47:40.157Z,61.00
2019-03-13T18:50:08.745Z,61.00
2019-03-13T18:52:36.430Z,61.60
2019-03-13T18:55:04.508Z,61.70
2019-03-13T18:57:32.338Z,61.40
2019-03-13T19:00:00.001Z,61.90
2019-03-13T19:02:27.779Z,61.60
2019-03-13T19:04:57.672Z,62.60
2019-03-13T19:07:25.516Z,62.20
2019-03-13T19:09:53.351Z,62.40
2019-03-13T19:12:21.073Z,61.90
2019-03-13T19:14:48.698Z,61.90
2019-03-13T19:17:16.421Z,62.10
2019-03-13T19:19:44.091Z,61.80
2019-03-13T19:22:11.774Z,62.40
2019-03-13T19:24:39.473Z,61.90
2019-03-13T19:27:07.217Z,61.80
2019-03-13T19:29:34.912Z,62.80
2019-03-13T19:32:02.581Z,63.10
2019-03-13T19:34:30.290Z,63.20
2019-03-13T19:36:57.947Z,62.30
2019-03-13T19:39:25.708Z,62.90
2019-03-13T19:41:53.367Z,62.60
2019-03-13T19:44:21.104Z,62.90
2019-03-13T19:46:49.741Z,62.30
2019-03-13T19:49:17.429Z,61.80
2019-03-13T19:51:45.134Z,62.00
2019-03-13T19:54:12.889Z,61.70
2019-03-13T19:56:40.543Z,61.60
2019-03-13T19:59:08.837Z,62.10
2019-03-13T20:01:36.515Z,61.80
2019-03-13T20:04:04.334Z,62.00
2019-03-13T20:06:41.681Z,61.50
2019-03-13T20:09:01.842Z,61.80
2019-03-13T20:11:31.397Z,61.70
2019-03-13T20:13:59.093Z,62.30
2019-03-13T20:16:26.752Z,63.10
2019-03-13T20:18:54.413Z,63.00
2019-03-13T20:21:22.089Z,62.90
2019-03-13T20:23:49.811Z,63.50
2019-03-13T20:26:17.492Z,64.20
2019-03-13T20:28:46.338Z,64.70
2019-03-13T20:31:14.345Z,65.00
2019-03-13T20:33:43.152Z,65.80
2019-03-13T20:36:10.836Z,66.30
2019-03-13T20:38:38.555Z,66.30
2019-03-13T20:41:06.421Z,66.30
2019-03-13T20:43:34.425Z,67.30
2019-03-13T20:46:03.815Z,67.00
2019-03-13T20:48:31.562Z,66.30
2019-03-13T20:50:59.249Z,66.30
2019-03-13T20:53:27.011Z,66.70
2019-03-13T20:55:54.708Z,66.40
2019-03-13T20:58:22.451Z,66.40
2019-03-13T21:00:50.331Z,66.60
2019-03-13T21:03:18.093Z,67.40
2019-03-13T21:05:45.891Z,67.90
2019-03-13T21:08:13.826Z,67.80
2019-03-13T21:10:41.590Z,67.30
2019-03-13T21:13:09.349Z,66.50
2019-03-13T21:15:39.843Z,67.90
2019-03-13T21:18:07.614Z,68.20
2019-03-13T21:20:35.498Z,68.30
2019-03-13T21:23:03.188Z,67.80
2019-03-13T21:25:30.989Z,67.70
2019-03-13T21:27:58.733Z,67.30
2019-03-13T21:30:26.571Z,68.00
2019-03-13T21:32:54.366Z,67.80
2019-03-13T21:35:22.322Z,67.60
2019-03-13T21:37:50.133Z,67.70
2019-03-13T21:40:18.155Z,67.80
2019-03-13T21:42:46.007Z,67.30
2019-03-13T21:45:22.503Z,66.50
2019-03-13T21:47:44.050Z,66.30
2019-03-13T21:50:12.701Z,66.90
2019-03-13T21:52:40.397Z,67.00
2019-03-13T21:55:09.425Z,66.80
2019-03-13T21:57:37.212Z,66.40
2019-03-13T22:00:07.713Z,66.50
2019-03-13T22:02:37.413Z,66.20
2019-03-13T22:05:05.710Z,66.60
2019-03-13T22:07:33.653Z,65.30
2019-03-13T22:10:01.533Z,64.80
2019-03-13T22:12:31.200Z,65.70
2019-03-13T22:14:58.984Z,65.30
2019-03-13T22:17:26.667Z,65.40
2019-03-13T22:19:54.358Z,65.80
2019-03-13T22:22:22.074Z,66.40
2019-03-13T22:24:49.825Z,66.40
2019-03-13T22:27:17.506Z,66.30
2019-03-13T22:29:45.317Z,66.40
2019-03-13T22:32:13.020Z,66.30
2019-03-13T22:34:40.663Z,67.00
2019-03-13T22:37:08.324Z,65.80
2019-03-13T22:39:36.203Z,65.70
2019-03-13T22:42:03.933Z,65.50
2019-03-13T22:44:31.631Z,65.20
2019-03-13T22:47:00.348Z,65.20
2019-03-13T22:49:28.010Z,64.90
2019-03-13T22:51:55.709Z,64.40
2019-03-13T22:54:23.443Z,64.00
2019-03-13T22:56:51.149Z,63.70
2019-03-13T22:59:18.933Z,64.10
2019-03-13T23:01:46.562Z,64.10
2019-03-13T23:04:14.253Z,64.00
2019-03-13T23:06:41.989Z,64.20
2019-03-13T23:09:13.039Z,64.40
2019-03-13T23:11:41.102Z,64.20
2019-03-13T23:14:08.766Z,64.40
2019-03-13T23:16:36.577Z,64.60
2019-03-13T23:19:04.224Z,64.90
2019-03-13T23:21:31.873Z,65.20
2019-03-13T23:23:59.550Z,65.40
2019-03-13T23:26:28.349Z,65.50
2019-03-13T23:28:56.322Z,66.00
2019-03-13T23:31:24.164Z,65.90
2019-03-13T23:33:51.810Z,65.90
2019-03-13T23:36:19.471Z,65.90
2019-03-13T23:38:47.202Z,65.80
2019-03-13T23:41:16.730Z,65.20
2019-03-13T23:43:44.468Z,65.80
2019-03-13T23:46:12.209Z,65.90
2019-03-13T23:48:39.845Z,65.90
2019-03-13T23:51:08.616Z,65.10
2019-03-13T23:53:36.262Z,65.50
2019-03-13T23:56:03.947Z,65.70
2019-03-13T23:58:34.895Z,65.70
